createdAt,value
2022-09-01T00:00:02.736Z,11.30
2022-09-01T00:02:30.513Z,11.22
2022-09-01T00:04:58.843Z,11.17
2022-09-01T00:07:34.605Z,11.22
2022-09-01T00:10:03.577Z,11.15
2022-09-01T00:12:30.491Z,11.09
2022-09-01T00:14:58.818Z,11.05
2022-09-01T00:17:25.921Z,11.03
2022-09-01T00:19:52.637Z,11.05
2022-09-01T00:22:19.455Z,11.08
2022-09-01T00:24:46.528Z,11.02
2022-09-01T00:27:13.207Z,10.99
2022-09-01T00:29:43.437Z,10.90
2022-09-01T00:32:11.627Z,10.84
2022-09-01T00:34:38.543Z,10.81
2022-09-01T00:37:05.396Z,10.81
2022-09-01T00:39:32.300Z,10.85
2022-09-01T00:41:59.638Z,10.78
2022-09-01T00:44:29.753Z,10.76
2022-09-01T00:46:58.519Z,10.72
2022-09-01T00:49:40.955Z,10.66
2022-09-01T00:52:11.607Z,10.74
2022-09-01T00:54:44.223Z,10.76
2022-09-01T00:57:12.841Z,10.76
2022-09-01T00:59:46.700Z,10.80
2022-09-01T01:02:13.509Z,10.75
2022-09-01T01:04:43.860Z,10.67
2022-09-01T01:07:12.325Z,10.64
2022-09-01T01:09:43.275Z,10.65
2022-09-01T01:12:18.531Z,10.76
2022-09-01T01:14:50.900Z,10.87
2022-09-01T01:17:22.814Z,10.88
2022-09-01T01:20:14.743Z,10.84
2022-09-01T01:23:03.695Z,10.83
2022-09-01T01:25:51.997Z,10.80
2022-09-01T01:28:27.060Z,10.82
2022-09-01T01:30:59.373Z,10.85
2022-09-01T01:33:40.653Z,10.86
2022-09-01T01:36:16.476Z,10.79
2022-09-01T01:38:47.142Z,10.79
2022-09-01T01:41:15.473Z,10.71
2022-09-01T01:43:42.321Z,10.69
2022-09-01T01:46:11.432Z,10.58
2022-09-01T01:48:41.634Z,10.53
2022-09-01T01:51:10.581Z,10.50
2022-09-01T01:53:38.284Z,10.44
2022-09-01T01:56:06.252Z,10.44
2022-09-01T01:58:33.704Z,10.32
2022-09-01T02:01:00.693Z,10.27
2022-09-01T02:03:38.481Z,10.43
2022-09-01T02:06:09.702Z,10.47
2022-09-01T02:08:38.546Z,10.38
2022-09-01T02:11:06.510Z,10.37
2022-09-01T02:13:34.147Z,10.37
2022-09-01T02:16:04.359Z,10.42
2022-09-01T02:18:37.243Z,10.41
2022-09-01T02:21:14.979Z,10.46
2022-09-01T02:23:49.669Z,10.39
2022-09-01T02:26:19.214Z,10.24
2022-09-01T02:28:54.404Z,10.13
2022-09-01T02:31:23.155Z,10.11
2022-09-01T02:33:50.871Z,10.25
2022-09-01T02:36:19.306Z,10.15
2022-09-01T02:38:53.593Z,10.01
2022-09-01T02:41:30.068Z,10.00
2022-09-01T02:43:57.213Z,10.00
2022-09-01T02:46:24.543Z,10.05
2022-09-01T02:48:52.518Z,10.04
2022-09-01T02:51:23.734Z,10.16
2022-09-01T02:53:52.118Z,10.29
2022-09-01T02:56:25.057Z,10.34
2022-09-01T02:58:53.458Z,10.50
2022-09-01T03:01:32.170Z,10.53
2022-09-01T03:04:02.394Z,10.44
2022-09-01T03:06:34.275Z,10.34
2022-09-01T03:09:01.917Z,10.46
2022-09-01T03:11:31.813Z,10.51
2022-09-01T03:13:59.365Z,10.41
2022-09-01T03:16:26.554Z,10.46
2022-09-01T03:18:53.513Z,10.54
2022-09-01T03:21:21.568Z,10.61
2022-09-01T03:23:49.806Z,10.68
2022-09-01T03:26:18.910Z,10.71
2022-09-01T03:28:46.489Z,10.66
2022-09-01T03:31:13.204Z,10.48
2022-09-01T03:33:40.862Z,10.42
2022-09-01T03:36:15.363Z,10.34
2022-09-01T03:38:44.068Z,10.27
2022-09-01T03:41:13.252Z,10.28
2022-09-01T03:43:45.876Z,10.30
2022-09-01T03:46:21.916Z,10.14
2022-09-01T03:48:55.165Z,10.13
2022-09-01T03:51:23.676Z,10.22
2022-09-01T03:53:57.644Z,10.29
2022-09-01T03:56:28.571Z,10.32
2022-09-01T03:58:58.767Z,10.16
2022-09-01T04:01:33.754Z,10.10
2022-09-01T04:04:01.296Z,9.97
2022-09-01T04:06:28.073Z,10.02
2022-09-01T04:09:02.878Z,9.97
2022-09-01T04:11:31.966Z,9.93
2022-09-01T04:13:59.838Z,9.98
2022-09-01T04:16:47.723Z,10.06
2022-09-01T04:19:20.865Z,10.12
2022-09-01T04:21:56.582Z,10.13
2022-09-01T04:24:27.997Z,10.25
2022-09-01T04:26:58.617Z,10.32
2022-09-01T04:29:29.064Z,10.37
2022-09-01T04:32:03.758Z,10.43
2022-09-01T04:34:40.429Z,10.29
2022-09-01T04:37:18.697Z,10.23
2022-09-01T04:39:56.678Z,10.16
2022-09-01T04:42:27.409Z,10.28
2022-09-01T04:44:57.628Z,10.36
2022-09-01T04:47:35.523Z,10.39
2022-09-01T04:50:13.010Z,10.33
2022-09-01T04:52:42.197Z,10.42
2022-09-01T04:55:17.862Z,10.43
2022-09-01T04:57:49.613Z,10.38
2022-09-01T05:00:24.391Z,10.38
2022-09-01T05:03:02.700Z,10.33
2022-09-01T05:05:30.041Z,10.37
2022-09-01T05:07:57.446Z,10.33
2022-09-01T05:13:23.578Z,10.67
2022-09-01T05:16:02.719Z,10.83
2022-09-01T05:18:29.674Z,10.90
2022-09-01T05:20:57.592Z,10.97
2022-09-01T05:23:26.720Z,10.93
2022-09-01T05:25:57.627Z,10.91
2022-09-01T05:28:25.447Z,10.92
2022-09-01T05:30:54.241Z,10.98
2022-09-01T05:33:22.117Z,11.07
2022-09-01T05:35:55.599Z,11.25
2022-09-01T05:38:22.770Z,11.44
2022-09-01T05:41:04.370Z,11.58
2022-09-01T05:43:32.525Z,11.75
2022-09-01T05:46:06.914Z,11.88
2022-09-01T05:48:36.216Z,12.02
2022-09-01T05:51:14.389Z,12.15
2022-09-01T05:53:58.880Z,12.28
2022-09-01T05:56:27.391Z,12.42
2022-09-01T06:01:44.733Z,12.72
2022-09-01T06:04:15.947Z,12.88
2022-09-01T06:07:06.486Z,13.05
2022-09-01T06:09:42.749Z,13.28
2022-09-01T06:12:18.541Z,13.44
2022-09-01T06:14:48.446Z,13.95
2022-09-01T06:17:17.112Z,15.66
2022-09-01T06:19:44.374Z,17.12
2022-09-01T06:22:11.458Z,19.05
2022-09-01T06:24:44.873Z,20.47
2022-09-01T06:27:13.044Z,20.37
2022-09-01T06:29:39.905Z,21.08
2022-09-01T06:32:10.539Z,22.37
2022-09-01T06:34:42.573Z,22.90
2022-09-01T06:37:11.173Z,22.29
2022-09-01T06:39:38.309Z,22.14
2022-09-01T06:42:06.320Z,22.89
2022-09-01T06:44:33.305Z,23.14
2022-09-01T06:47:00.487Z,22.10
2022-09-01T06:49:33.231Z,22.77
2022-09-01T06:52:01.107Z,22.64
2022-09-01T06:54:29.906Z,24.00
2022-09-01T06:56:57.713Z,23.53
2022-09-01T06:59:34.591Z,23.11
2022-09-01T07:02:05.705Z,21.91
2022-09-01T07:04:32.699Z,21.08
2022-09-01T07:07:01.807Z,19.61
2022-09-01T07:09:50.236Z,19.96
2022-09-01T07:12:32.738Z,19.75
2022-09-01T07:17:50.148Z,19.44
2022-09-01T07:20:25.366Z,19.52
2022-09-01T07:23:09.702Z,19.52
2022-09-01T07:26:01.599Z,19.10
2022-09-01T07:28:37.666Z,19.15
2022-09-01T07:34:37.634Z,19.70
2022-09-01T07:39:48.233Z,19.61
2022-09-01T07:45:26.155Z,20.59
2022-09-01T07:47:53.909Z,20.89
2022-09-01T07:53:12.564Z,21.50
2022-09-01T07:55:41.486Z,21.36
2022-09-01T07:58:10.687Z,21.45
2022-09-01T08:00:40.009Z,21.78
2022-09-01T08:03:07.071Z,22.21
2022-09-01T08:05:34.191Z,22.13
2022-09-01T08:08:01.266Z,22.24
2022-09-01T08:10:28.606Z,21.62
2022-09-01T08:12:57.062Z,21.00
2022-09-01T08:16:06.341Z,20.40
2022-09-01T08:18:14.384Z,20.11
2022-09-01T08:20:45.574Z,20.03
2022-09-01T08:23:15.717Z,20.34
2022-09-01T08:25:45.996Z,20.27
2022-09-01T08:28:15.069Z,20.19
2022-09-01T08:30:49.072Z,20.60
2022-09-01T08:33:19.678Z,20.13
2022-09-01T08:35:49.095Z,19.81
2022-09-01T08:38:16.201Z,19.57
2022-09-01T08:40:49.619Z,20.13
2022-09-01T08:43:46.370Z,20.72
2022-09-01T08:46:26.205Z,21.14
2022-09-01T08:49:24.398Z,21.27
2022-09-01T08:51:54.287Z,21.16
2022-09-01T08:54:29.285Z,21.63
2022-09-01T08:57:02.074Z,21.60
2022-09-01T08:59:28.916Z,21.68
2022-09-01T09:02:16.460Z,21.93
2022-09-01T09:05:16.798Z,22.00
2022-09-01T09:08:06.860Z,21.97
2022-09-01T09:10:59.047Z,22.60
2022-09-01T09:13:39.931Z,22.82
2022-09-01T09:16:25.502Z,22.67
2022-09-01T09:19:24.636Z,21.97
2022-09-01T09:21:54.187Z,21.37
2022-09-01T09:24:29.025Z,21.50
2022-09-01T09:27:05.377Z,21.79
2022-09-01T09:29:33.923Z,21.94
2022-09-01T09:34:56.955Z,21.86
2022-09-01T09:37:28.182Z,21.23
2022-09-01T09:40:16.030Z,21.29
2022-09-01T09:42:53.989Z,21.74
2022-09-01T09:45:36.270Z,22.24
2022-09-01T09:48:26.897Z,22.13
2022-09-01T09:50:54.071Z,22.42
2022-09-01T09:53:26.468Z,22.42
2022-09-01T09:56:05.491Z,22.69
2022-09-01T09:58:43.725Z,22.93
2022-09-01T10:01:17.735Z,23.06
2022-09-01T10:04:04.332Z,23.33
2022-09-01T10:06:38.218Z,23.13
2022-09-01T10:09:14.729Z,22.72
2022-09-01T10:11:44.402Z,22.53
2022-09-01T10:14:35.389Z,22.31
2022-09-01T10:17:35.889Z,22.57
2022-09-01T10:20:25.356Z,22.58
2022-09-01T10:22:53.141Z,22.72
2022-09-01T10:25:29.222Z,22.77
2022-09-01T10:28:02.242Z,22.92
2022-09-01T10:30:30.486Z,22.80
2022-09-01T10:33:07.783Z,22.66
2022-09-01T10:35:45.322Z,22.57
2022-09-01T10:38:19.183Z,22.78
2022-09-01T10:40:50.871Z,22.57
2022-09-01T10:43:36.372Z,22.72
2022-09-01T10:46:24.749Z,22.64
2022-09-01T10:49:04.418Z,23.16
2022-09-01T10:51:50.507Z,23.24
2022-09-01T10:54:50.851Z,23.10
2022-09-01T10:57:27.837Z,23.24
2022-09-01T10:59:58.292Z,23.39
2022-09-01T11:02:27.683Z,22.92
2022-09-01T11:04:55.001Z,23.11
2022-09-01T11:07:38.868Z,23.44
2022-09-01T11:10:33.080Z,23.41
2022-09-01T11:13:21.755Z,22.97
2022-09-01T11:15:48.883Z,22.62
2022-09-01T11:18:24.076Z,22.43
2022-09-01T11:20:51.057Z,22.85
2022-09-01T11:23:27.689Z,22.97
2022-09-01T11:28:43.351Z,22.58
2022-09-01T11:31:36.284Z,22.81
2022-09-01T11:34:20.623Z,22.83
2022-09-01T11:37:00.378Z,22.96
2022-09-01T11:39:39.429Z,22.48
2022-09-01T11:42:19.739Z,22.43
2022-09-01T11:44:54.093Z,22.73
2022-09-01T11:47:40.391Z,22.59
2022-09-01T11:50:21.011Z,22.73
2022-09-01T11:52:54.881Z,22.72
2022-09-01T11:55:41.713Z,22.88
2022-09-01T11:58:17.759Z,22.93
2022-09-01T12:00:45.353Z,23.19
2022-09-01T12:03:25.333Z,23.27
2022-09-01T12:05:59.342Z,23.06
2022-09-01T12:08:30.579Z,22.78
2022-09-01T12:11:09.800Z,22.70
2022-09-01T12:13:37.034Z,22.76
2022-09-01T12:16:17.913Z,22.37
2022-09-01T12:18:53.074Z,21.60
2022-09-01T12:21:42.651Z,21.17
2022-09-01T12:24:14.916Z,21.56
2022-09-01T12:26:42.732Z,21.64
2022-09-01T12:29:11.339Z,22.02
2022-09-01T12:31:43.331Z,22.20
2022-09-01T12:34:33.066Z,22.36
2022-09-01T12:37:06.654Z,22.47
2022-09-01T12:39:36.115Z,22.34
2022-09-01T12:42:40.983Z,22.19
2022-09-01T12:45:10.824Z,22.37
2022-09-01T12:47:37.601Z,22.42
2022-09-01T12:50:08.492Z,22.61
2022-09-01T12:52:44.968Z,22.88
2022-09-01T12:58:10.152Z,22.72
2022-09-01T13:00:55.915Z,22.72
2022-09-01T13:03:23.520Z,22.61
2022-09-01T13:05:52.989Z,22.36
2022-09-01T13:08:24.233Z,22.00
2022-09-01T13:10:53.869Z,22.35
2022-09-01T13:13:24.255Z,22.38
2022-09-01T13:15:54.656Z,22.53
2022-09-01T13:18:23.710Z,22.48
2022-09-01T13:20:53.079Z,22.02
2022-09-01T13:23:21.182Z,21.81
2022-09-01T13:25:48.560Z,22.05
2022-09-01T13:28:16.625Z,21.96
2022-09-01T13:30:46.875Z,21.99
2022-09-01T13:33:23.189Z,22.19
2022-09-01T13:35:51.425Z,22.31
2022-09-01T13:38:19.134Z,22.44
2022-09-01T13:40:48.129Z,22.46
2022-09-01T13:43:16.145Z,22.31
2022-09-01T13:45:45.032Z,22.46
2022-09-01T13:48:16.231Z,22.40
2022-09-01T13:53:32.754Z,22.83
2022-09-01T13:55:59.636Z,22.71
2022-09-01T13:58:26.442Z,22.61
2022-09-01T14:00:54.014Z,22.92
2022-09-01T14:03:23.549Z,22.86
2022-09-01T14:05:50.997Z,22.77
2022-09-01T14:08:21.057Z,22.82
2022-09-01T14:10:51.047Z,22.74
2022-09-01T14:13:22.960Z,22.79
2022-09-01T14:15:50.112Z,22.62
2022-09-01T14:18:18.018Z,22.59
2022-09-01T14:20:51.005Z,22.43
2022-09-01T14:23:19.659Z,22.50
2022-09-01T14:25:50.152Z,22.38
2022-09-01T14:28:20.730Z,22.30
2022-09-01T14:33:16.816Z,22.15
2022-09-01T14:35:46.595Z,22.01
2022-09-01T14:38:14.804Z,22.27
2022-09-01T14:40:43.858Z,22.01
2022-09-01T14:43:14.238Z,21.83
2022-09-01T14:45:45.998Z,21.88
2022-09-01T14:48:14.294Z,21.91
2022-09-01T14:50:46.926Z,21.71
2022-09-01T14:53:13.696Z,21.91
2022-09-01T14:55:44.106Z,21.73
2022-09-01T14:58:11.164Z,21.93
2022-09-01T15:00:42.116Z,21.71
2022-09-01T15:03:09.794Z,21.49
2022-09-01T15:05:40.319Z,21.76
2022-09-01T15:08:10.323Z,21.90
2022-09-01T15:10:40.642Z,21.90
2022-09-01T15:13:07.701Z,21.96
2022-09-01T15:15:34.566Z,22.13
2022-09-01T15:18:02.142Z,22.04
2022-09-01T15:20:45.521Z,22.12
2022-09-01T15:23:15.289Z,22.00
2022-09-01T15:25:42.196Z,21.99
2022-09-01T15:28:09.413Z,21.89
2022-09-01T15:30:37.062Z,21.73
2022-09-01T15:33:04.732Z,21.87
2022-09-01T15:35:31.816Z,21.99
2022-09-01T15:37:58.660Z,21.81
2022-09-01T15:40:26.602Z,21.71
2022-09-01T15:42:54.769Z,21.71
2022-09-01T15:45:23.730Z,21.67
2022-09-01T15:47:50.893Z,21.48
2022-09-01T15:50:21.991Z,21.34
2022-09-01T15:52:54.977Z,21.44
2022-09-01T15:55:31.012Z,21.35
2022-09-01T15:57:58.904Z,21.34
2022-09-01T16:00:27.066Z,21.41
2022-09-01T16:02:57.761Z,21.18
2022-09-01T16:05:25.255Z,21.26
2022-09-01T16:07:53.652Z,20.92
2022-09-01T16:10:21.617Z,20.90
2022-09-01T16:12:49.892Z,21.12
2022-09-01T16:15:19.899Z,21.04
2022-09-01T16:18:11.718Z,20.97
2022-09-01T16:20:59.938Z,20.86
2022-09-01T16:23:48.757Z,20.80
2022-09-01T16:26:18.044Z,20.78
2022-09-01T16:28:49.426Z,20.82
2022-09-01T16:31:24.766Z,20.74
2022-09-01T16:33:58.046Z,20.59
2022-09-01T16:36:24.683Z,20.84
2022-09-01T16:39:01.520Z,20.74
2022-09-01T16:42:13.364Z,20.52
2022-09-01T16:44:43.064Z,20.56
2022-09-01T16:47:12.727Z,20.50
2022-09-01T16:50:12.553Z,20.46
2022-09-01T16:52:57.533Z,20.41
2022-09-01T16:55:56.546Z,20.31
2022-09-01T16:58:54.409Z,20.22
2022-09-01T17:01:26.261Z,20.16
2022-09-01T17:04:16.010Z,20.04
2022-09-01T17:06:50.942Z,19.96
2022-09-01T17:09:22.732Z,19.92
2022-09-01T17:11:58.075Z,19.92
2022-09-01T17:14:38.125Z,20.00
2022-09-01T17:17:12.011Z,19.95
2022-09-01T17:19:44.262Z,19.83
2022-09-01T17:22:13.617Z,19.63
2022-09-01T17:24:43.717Z,19.64
2022-09-01T17:27:34.003Z,19.52
2022-09-01T17:30:02.226Z,19.51
2022-09-01T17:32:48.332Z,19.59
2022-09-01T17:35:42.832Z,19.50
2022-09-01T17:38:54.282Z,19.41
2022-09-01T17:41:46.173Z,19.32
2022-09-01T17:44:51.400Z,19.23
2022-09-01T17:47:40.871Z,19.20
2022-09-01T17:50:22.655Z,19.10
2022-09-01T17:53:03.010Z,19.15
2022-09-01T17:55:59.918Z,19.02
2022-09-01T17:58:49.282Z,18.73
2022-09-01T18:02:07.066Z,18.63
2022-09-01T18:04:47.528Z,18.69
2022-09-01T18:07:30.506Z,18.56
2022-09-01T18:10:00.572Z,18.51
2022-09-01T18:12:30.909Z,18.38
2022-09-01T18:15:09.046Z,18.26
2022-09-01T18:17:42.052Z,18.20
2022-09-01T18:20:16.496Z,18.08
2022-09-01T18:23:08.487Z,17.96
2022-09-01T18:25:35.559Z,17.91
2022-09-01T18:28:02.621Z,17.92
2022-09-01T18:30:53.202Z,17.85
2022-09-01T18:33:40.893Z,17.83
2022-09-01T18:36:25.819Z,17.69
2022-09-01T18:39:05.047Z,17.72
2022-09-01T18:41:43.317Z,17.50
2022-09-01T18:44:26.697Z,17.33
2022-09-01T18:47:11.076Z,17.23
2022-09-01T18:49:55.203Z,17.25
2022-09-01T18:52:59.354Z,17.19
2022-09-01T18:55:38.075Z,16.99
2022-09-01T18:58:17.182Z,16.87
2022-09-01T19:00:54.580Z,16.61
2022-09-01T19:03:32.681Z,16.51
2022-09-01T19:06:28.209Z,16.36
2022-09-01T19:09:19.299Z,16.42
2022-09-01T19:11:59.987Z,16.51
2022-09-01T19:14:51.727Z,16.49
2022-09-01T19:17:54.245Z,16.36
2022-09-01T19:20:27.761Z,16.36
2022-09-01T19:23:06.495Z,16.40
2022-09-01T19:25:36.613Z,16.40
2022-09-01T19:28:15.054Z,16.46
2022-09-01T19:31:04.991Z,16.34
2022-09-01T19:33:38.286Z,16.33
2022-09-01T19:36:09.468Z,16.17
2022-09-01T19:38:37.618Z,15.97
2022-09-01T19:41:14.319Z,15.98
2022-09-01T19:43:42.991Z,15.81
2022-09-01T19:46:20.433Z,15.63
2022-09-01T19:48:59.657Z,15.55
2022-09-01T19:51:38.258Z,15.43
2022-09-01T19:54:27.800Z,15.39
2022-09-01T19:57:06.905Z,15.45
2022-09-01T19:59:55.069Z,15.44
2022-09-01T20:02:29.509Z,15.60
2022-09-01T20:05:07.766Z,15.62
2022-09-01T20:07:59.674Z,15.62
2022-09-01T20:10:36.123Z,15.56
2022-09-01T20:13:33.826Z,15.61
2022-09-01T20:16:15.903Z,15.51
2022-09-01T20:19:18.916Z,15.37
2022-09-01T20:21:48.319Z,15.31
2022-09-01T20:24:34.016Z,15.30
2022-09-01T20:27:06.977Z,15.50
2022-09-01T20:29:56.789Z,15.43
2022-09-01T20:32:33.374Z,15.52
2022-09-01T20:35:09.716Z,15.47
2022-09-01T20:37:56.487Z,15.30
2022-09-01T20:40:35.808Z,15.39
2022-09-01T20:43:41.329Z,15.38
2022-09-01T20:46:08.408Z,15.46
2022-09-01T20:48:41.573Z,15.34
2022-09-01T20:51:34.254Z,15.04
2022-09-01T20:54:22.830Z,14.75
2022-09-01T20:57:03.675Z,14.44
2022-09-01T20:59:42.505Z,14.07
2022-09-01T21:02:18.183Z,13.86
2022-09-01T21:05:03.687Z,13.69
2022-09-01T21:07:56.231Z,13.59
2022-09-01T21:10:42.011Z,13.51
2022-09-01T21:13:14.825Z,13.40
2022-09-01T21:15:59.998Z,13.31
2022-09-01T21:18:45.507Z,13.24
2022-09-01T21:21:35.038Z,13.12
2022-09-01T21:24:02.482Z,13.02
2022-09-01T21:26:30.276Z,13.03
2022-09-01T21:29:04.478Z,13.05
2022-09-01T21:31:31.193Z,12.89
2022-09-01T21:33:57.897Z,12.93
2022-09-01T21:36:24.581Z,12.81
2022-09-01T21:38:51.306Z,12.86
2022-09-01T21:41:17.968Z,12.75
2022-09-01T21:43:46.340Z,12.59
2022-09-01T21:46:14.664Z,12.54
2022-09-01T21:48:41.620Z,12.51
2022-09-01T21:51:08.329Z,12.60
2022-09-01T21:53:35.033Z,12.38
2022-09-01T21:56:01.943Z,12.43
2022-09-01T21:58:29.236Z,12.40
2022-09-01T22:00:58.706Z,12.49
2022-09-01T22:03:25.602Z,12.36
2022-09-01T22:05:52.375Z,12.25
2022-09-01T22:08:19.418Z,12.18
2022-09-01T22:10:49.481Z,12.28
2022-09-01T22:13:16.933Z,12.35
2022-09-01T22:15:46.807Z,12.33
2022-09-01T22:18:14.756Z,12.33
2022-09-01T22:20:41.786Z,12.30
2022-09-01T22:23:09.394Z,12.23
2022-09-01T22:25:44.212Z,12.14
2022-09-01T22:28:11.493Z,12.19
2022-09-01T22:30:44.942Z,12.18
2022-09-01T22:33:12.697Z,12.18
2022-09-01T22:35:44.463Z,12.09
2022-09-01T22:38:11.756Z,12.12
2022-09-01T22:40:47.574Z,12.10
2022-09-01T22:43:18.743Z,12.13
2022-09-01T22:45:47.020Z,12.11
2022-09-01T22:48:15.094Z,12.12
2022-09-01T22:50:43.711Z,12.13
2022-09-01T22:53:11.517Z,12.14
2022-09-01T22:55:39.897Z,12.10
2022-09-01T22:58:10.248Z,12.16
2022-09-01T23:00:38.459Z,12.15
2022-09-01T23:03:05.464Z,12.19
2022-09-01T23:05:32.275Z,12.18
2022-09-01T23:07:59.029Z,12.14
2022-09-01T23:10:26.207Z,12.15
2022-09-01T23:12:52.948Z,12.14
2022-09-01T23:15:19.682Z,12.11
2022-09-01T23:17:46.416Z,12.15
2022-09-01T23:20:14.129Z,12.15
2022-09-01T23:22:42.693Z,12.16
2022-09-01T23:25:10.636Z,12.13
2022-09-01T23:27:37.930Z,11.92
2022-09-01T23:30:07.806Z,11.98
2022-09-01T23:32:35.030Z,12.01
2022-09-01T23:35:02.467Z,12.01
2022-09-01T23:37:29.377Z,11.88
2022-09-01T23:39:57.424Z,11.89
2022-09-01T23:42:24.836Z,11.85
2022-09-01T23:44:51.676Z,11.83
2022-09-01T23:47:19.605Z,11.84
2022-09-01T23:49:46.419Z,11.79
2022-09-01T23:52:13.254Z,11.82
2022-09-01T23:54:39.985Z,11.72
2022-09-01T23:57:06.876Z,11.64
2022-09-01T23:59:33.729Z,11.66
